createdAt,value
2022-09-16T00:01:36.318Z,100257.44
2022-09-16T00:04:03.262Z,100282.50
2022-09-16T00:06:30.352Z,100240.88
2022-09-16T00:09:00.979Z,100265.28
2022-09-16T00:11:28.652Z,100279.50
2022-09-16T00:13:55.089Z,100271.31
2022-09-16T00:16:25.028Z,100286.69
2022-09-16T00:18:56.156Z,100270.78
2022-09-16T00:21:22.820Z,100272.97
2022-09-16T00:23:49.311Z,100269.13
2022-09-16T00:26:15.952Z,100281.16
2022-09-16T00:28:42.738Z,100263.44
2022-09-16T00:31:09.635Z,100262.09
2022-09-16T00:33:36.128Z,100303.41
2022-09-16T00:36:16.229Z,100319.63
2022-09-16T00:38:43.596Z,100317.44
2022-09-16T00:41:16.936Z,100263.25
2022-09-16T00:43:51.034Z,100290.84
2022-09-16T00:46:23.100Z,100277.78
2022-09-16T00:48:49.970Z,100275.59
2022-09-16T00:51:17.210Z,100254.72
2022-09-16T00:54:02.133Z,100252.22
2022-09-16T00:56:34.112Z,100259.56
2022-09-16T00:59:10.812Z,100273.28
2022-09-16T01:01:38.962Z,100294.72
2022-09-16T01:04:22.578Z,100295.03
2022-09-16T01:06:49.553Z,100283.66
2022-09-16T01:09:18.066Z,100307.06
2022-09-16T01:11:44.462Z,100299.22
2022-09-16T01:14:40.606Z,100275.81
2022-09-16T01:17:34.150Z,100304.91
2022-09-16T01:20:34.656Z,100294.34
2022-09-16T01:23:29.608Z,100297.03
2022-09-16T01:26:15.792Z,100284.81
2022-09-16T01:29:24.137Z,100301.22
2022-09-16T01:32:03.761Z,100296.34
2022-09-16T01:34:40.165Z,100301.25
2022-09-16T01:37:38.981Z,100271.78
2022-09-16T01:40:43.128Z,100304.75
2022-09-16T01:43:25.946Z,100300.72
2022-09-16T01:46:15.519Z,100297.22
2022-09-16T01:48:57.820Z,100283.50
2022-09-16T01:51:24.112Z,100285.84
2022-09-16T01:54:07.134Z,100271.13
2022-09-16T01:56:55.795Z,100274.78
2022-09-16T01:59:39.575Z,100236.34
2022-09-16T02:02:17.549Z,100275.84
2022-09-16T02:04:50.437Z,100260.25
2022-09-16T02:07:21.030Z,100257.09
2022-09-16T02:10:06.585Z,100258.78
2022-09-16T02:12:37.224Z,100281.16
2022-09-16T02:15:09.547Z,100277.50
2022-09-16T02:17:44.932Z,100255.09
2022-09-16T02:20:20.225Z,100249.91
2022-09-16T02:22:51.669Z,100262.78
2022-09-16T02:25:19.542Z,100266.28
2022-09-16T02:27:49.246Z,100249.91
2022-09-16T02:30:19.296Z,100251.72
2022-09-16T02:32:50.298Z,100243.53
2022-09-16T02:35:19.623Z,100283.50
2022-09-16T02:37:51.038Z,100234.84
2022-09-16T02:40:24.366Z,100246.56
2022-09-16T02:42:51.805Z,100245.38
2022-09-16T02:45:18.487Z,100260.91
2022-09-16T02:48:23.430Z,100264.94
2022-09-16T02:50:59.115Z,100242.38
2022-09-16T02:53:43.581Z,100211.28
2022-09-16T02:56:31.025Z,100232.69
2022-09-16T02:58:57.984Z,100231.34
2022-09-16T03:01:25.923Z,100228.84
2022-09-16T03:03:55.765Z,100268.13
2022-09-16T03:06:25.295Z,100269.13
2022-09-16T03:08:54.124Z,100202.44
2022-09-16T03:11:31.716Z,100225.31
2022-09-16T03:14:27.940Z,100222.63
2022-09-16T03:17:26.789Z,100248.88
2022-09-16T03:20:12.067Z,100247.06
2022-09-16T03:22:44.538Z,100247.22
2022-09-16T03:25:29.779Z,100249.06
2022-09-16T03:28:16.915Z,100233.00
2022-09-16T03:31:12.900Z,100245.19
2022-09-16T03:34:05.136Z,100236.69
2022-09-16T03:36:36.502Z,100217.31
2022-09-16T03:39:05.836Z,100235.69
2022-09-16T03:41:34.073Z,100212.94
2022-09-16T03:44:04.014Z,100223.00
2022-09-16T03:46:31.043Z,100227.84
2022-09-16T03:48:57.822Z,100231.66
2022-09-16T03:51:25.981Z,100207.59
2022-09-16T03:53:53.094Z,100210.09
2022-09-16T03:56:20.272Z,100244.53
2022-09-16T03:58:50.170Z,100209.63
2022-09-16T04:01:16.862Z,100240.19
2022-09-16T04:03:43.359Z,100218.28
2022-09-16T04:06:09.976Z,100168.50
2022-09-16T04:08:37.198Z,100194.56
2022-09-16T04:11:08.034Z,100207.59
2022-09-16T04:13:35.841Z,100222.50
2022-09-16T04:16:04.427Z,100213.63
2022-09-16T04:18:32.033Z,100228.16
2022-09-16T04:20:59.984Z,100228.66
2022-09-16T04:23:27.773Z,100220.63
2022-09-16T04:25:59.198Z,100221.31
2022-09-16T04:28:26.024Z,100230.34
2022-09-16T04:30:52.540Z,100170.16
2022-09-16T04:33:19.208Z,100205.59
2022-09-16T04:35:45.861Z,100192.75
2022-09-16T04:38:12.236Z,100211.78
2022-09-16T04:40:41.289Z,100212.94
2022-09-16T04:43:07.720Z,100185.38
2022-09-16T04:45:34.355Z,100218.47
2022-09-16T04:48:00.860Z,100210.44
2022-09-16T04:50:27.664Z,100159.94
2022-09-16T04:52:54.224Z,100195.06
2022-09-16T04:55:23.164Z,100239.69
2022-09-16T04:57:50.286Z,100232.16
2022-09-16T05:00:16.851Z,100235.69
2022-09-16T05:02:46.811Z,100230.50
2022-09-16T05:05:13.484Z,100217.81
2022-09-16T05:07:39.858Z,100220.47
2022-09-16T05:10:06.861Z,100222.31
2022-09-16T05:12:33.251Z,100221.81
2022-09-16T05:14:59.619Z,100173.31
2022-09-16T05:17:49.325Z,100202.22
2022-09-16T05:20:12.787Z,100206.59
2022-09-16T05:22:39.213Z,100209.59
2022-09-16T05:25:06.340Z,100195.41
2022-09-16T05:27:33.204Z,100198.09
2022-09-16T05:29:59.598Z,100180.38
2022-09-16T05:32:26.071Z,100186.72
2022-09-16T05:34:52.513Z,100221.81
2022-09-16T05:37:18.883Z,100207.59
2022-09-16T05:39:45.320Z,100193.22
2022-09-16T05:42:11.695Z,100182.88
2022-09-16T05:44:38.092Z,100204.94
2022-09-16T05:47:04.632Z,100187.88
2022-09-16T05:49:31.109Z,100207.44
2022-09-16T05:51:57.486Z,100188.53
2022-09-16T05:54:25.210Z,100215.63
2022-09-16T05:56:51.891Z,100193.06
2022-09-16T05:59:18.481Z,100200.22
2022-09-16T06:01:45.304Z,100202.41
2022-09-16T06:04:13.376Z,100205.09
2022-09-16T06:06:42.874Z,100196.25
2022-09-16T06:09:11.956Z,100172.16
2022-09-16T06:11:41.271Z,100195.72
2022-09-16T06:14:08.354Z,100177.19
2022-09-16T06:16:36.086Z,100190.88
2022-09-16T06:19:05.346Z,100186.88
2022-09-16T06:21:31.802Z,100155.97
2022-09-16T06:23:58.387Z,100194.56
2022-09-16T06:26:26.469Z,100194.03
2022-09-16T06:28:53.419Z,100171.16
2022-09-16T06:31:26.253Z,100197.88
2022-09-16T06:33:54.020Z,100187.81
2022-09-16T06:36:23.253Z,100193.50
2022-09-16T06:38:51.206Z,100187.16
2022-09-16T06:41:19.355Z,100180.97
2022-09-16T06:43:46.625Z,100196.88
2022-09-16T06:46:18.758Z,100183.47
2022-09-16T06:48:51.044Z,100175.44
2022-09-16T06:51:23.078Z,100171.59
2022-09-16T06:53:51.168Z,100191.31
2022-09-16T06:56:22.709Z,100175.91
2022-09-16T06:58:58.736Z,100185.56
2022-09-16T07:01:29.178Z,99982.22
2022-09-16T07:04:04.657Z,100193.88
2022-09-16T07:06:57.755Z,100052.16
2022-09-16T07:09:19.869Z,100052.16
2022-09-16T07:11:51.070Z,100076.16
2022-09-16T07:14:17.857Z,100140.88
2022-09-16T07:16:47.541Z,100146.84
2022-09-16T07:19:14.685Z,100027.38
2022-09-16T07:21:44.387Z,100008.81
2022-09-16T07:24:14.093Z,100025.91
2022-09-16T07:26:46.687Z,100000.41
2022-09-16T07:29:20.653Z,100182.91
2022-09-16T07:31:50.861Z,100227.28
2022-09-16T07:34:20.251Z,100187.69
2022-09-16T07:36:57.307Z,100213.47
2022-09-16T07:39:28.003Z,99977.44
2022-09-16T07:41:55.553Z,100120.94
2022-09-16T07:44:28.341Z,100083.66
2022-09-16T07:46:56.008Z,99944.19
2022-09-16T07:49:23.444Z,99947.63
2022-09-16T07:51:53.643Z,100059.38
2022-09-16T07:54:21.774Z,100207.66
2022-09-16T07:56:53.540Z,100073.03
2022-09-16T07:59:23.675Z,100196.59
2022-09-16T08:01:56.143Z,100232.38
2022-09-16T08:04:23.261Z,99996.75
2022-09-16T08:06:53.464Z,100048.22
2022-09-16T08:09:41.310Z,100196.53
2022-09-16T08:12:18.344Z,99981.50
2022-09-16T08:14:56.917Z,100058.44
2022-09-16T08:17:28.668Z,100132.50
2022-09-16T08:20:02.369Z,100136.13
2022-09-16T08:22:29.482Z,100216.06
2022-09-16T08:24:56.655Z,99988.25
2022-09-16T08:27:30.028Z,100144.84
2022-09-16T08:30:00.049Z,100021.53
2022-09-16T08:32:27.170Z,100008.66
2022-09-16T08:35:02.353Z,100022.53
2022-09-16T08:37:33.024Z,99970.09
2022-09-16T08:40:06.995Z,100230.09
2022-09-16T08:43:06.560Z,100099.97
2022-09-16T08:46:10.927Z,100148.59
2022-09-16T08:49:03.878Z,100185.88
2022-09-16T08:51:39.301Z,99956.28
2022-09-16T08:54:34.803Z,100209.41
2022-09-16T08:57:06.932Z,99980.31
2022-09-16T08:59:44.238Z,100114.69
2022-09-16T09:02:36.247Z,100025.22
2022-09-16T09:05:16.633Z,100042.72
2022-09-16T09:07:58.804Z,100202.97
2022-09-16T09:10:48.349Z,99989.81
2022-09-16T09:13:43.429Z,100209.97
2022-09-16T09:16:35.736Z,100171.75
2022-09-16T09:19:14.646Z,100195.88
2022-09-16T09:21:53.705Z,100200.50
2022-09-16T09:24:49.542Z,100069.09
2022-09-16T09:27:30.412Z,100236.19
2022-09-16T09:30:24.312Z,100038.97
2022-09-16T09:33:44.897Z,100185.94
2022-09-16T09:36:37.293Z,100177.47
2022-09-16T09:39:31.946Z,99935.50
2022-09-16T09:42:16.234Z,100139.72
2022-09-16T09:45:11.545Z,100161.69
2022-09-16T09:48:06.012Z,100028.38
2022-09-16T09:50:56.884Z,100185.91
2022-09-16T09:53:47.809Z,100079.97
2022-09-16T09:56:34.046Z,100151.66
2022-09-16T09:59:11.530Z,100042.16
2022-09-16T10:01:38.502Z,99946.31
2022-09-16T10:04:18.085Z,100074.44
2022-09-16T10:06:46.283Z,100047.25
2022-09-16T10:09:31.870Z,100203.19
2022-09-16T10:12:06.362Z,100086.59
2022-09-16T10:14:49.784Z,100054.88
2022-09-16T10:17:23.383Z,100090.66
2022-09-16T10:20:07.225Z,100045.91
2022-09-16T10:22:38.611Z,100084.28
2022-09-16T10:25:27.741Z,99960.03
2022-09-16T10:28:02.543Z,100048.53
2022-09-16T10:30:32.967Z,100072.81
2022-09-16T10:33:18.340Z,99980.09
2022-09-16T10:35:56.964Z,100134.22
2022-09-16T10:38:35.775Z,100030.78
2022-09-16T10:41:20.175Z,100126.22
2022-09-16T10:44:06.090Z,100127.28
2022-09-16T10:46:44.433Z,100042.66
2022-09-16T10:49:38.066Z,100006.91
2022-09-16T10:52:19.377Z,99898.16
2022-09-16T10:54:52.821Z,99918.47
2022-09-16T10:57:33.483Z,100099.47
2022-09-16T11:00:20.557Z,100137.84
2022-09-16T11:03:33.539Z,100046.34
2022-09-16T11:06:38.227Z,100104.63
2022-09-16T11:09:33.268Z,100027.66
2022-09-16T11:12:27.570Z,99986.47
2022-09-16T11:15:08.225Z,100020.22
2022-09-16T11:17:49.812Z,100130.47
2022-09-16T11:20:52.214Z,99933.91
2022-09-16T11:23:32.480Z,100122.56
2022-09-16T11:26:09.600Z,99952.88
2022-09-16T11:29:11.378Z,100117.91
2022-09-16T11:32:09.720Z,100116.16
2022-09-16T11:34:57.147Z,99947.13
2022-09-16T11:37:35.400Z,100105.94
2022-09-16T11:40:21.405Z,100111.41
2022-09-16T11:43:21.855Z,99927.19
2022-09-16T11:46:26.762Z,100105.09
2022-09-16T11:49:47.800Z,100008.81
2022-09-16T11:52:34.830Z,100085.81
2022-09-16T11:56:22.091Z,100091.66
2022-09-16T11:59:35.830Z,100080.13
2022-09-16T12:02:28.724Z,99979.81
2022-09-16T12:05:03.445Z,100060.63
2022-09-16T12:08:08.786Z,99875.69
2022-09-16T12:10:58.440Z,99999.22
2022-09-16T12:14:06.085Z,100038.66
2022-09-16T12:16:51.947Z,100097.84
2022-09-16T12:19:30.294Z,99939.94
2022-09-16T12:22:03.084Z,99981.84
2022-09-16T12:24:29.976Z,100094.06
2022-09-16T12:27:15.466Z,99961.16
2022-09-16T12:29:52.380Z,100062.03
2022-09-16T12:32:44.086Z,99952.91
2022-09-16T12:35:16.960Z,100064.56
2022-09-16T12:37:49.736Z,100061.25
2022-09-16T12:40:47.680Z,99917.28
2022-09-16T12:43:47.686Z,100046.06
2022-09-16T12:46:35.472Z,100054.66
2022-09-16T12:49:24.328Z,100087.63
2022-09-16T12:52:19.932Z,100043.97
2022-09-16T12:55:17.163Z,100069.84
2022-09-16T12:58:10.178Z,100069.75
2022-09-16T13:00:50.323Z,100054.56
2022-09-16T13:03:22.239Z,99891.16
2022-09-16T13:05:53.159Z,99890.09
2022-09-16T13:08:34.334Z,99860.19
2022-09-16T13:14:05.628Z,99975.44
2022-09-16T13:16:37.460Z,99826.16
2022-09-16T13:19:29.027Z,100040.44
2022-09-16T13:22:00.768Z,99867.63
2022-09-16T13:24:57.401Z,99871.84
2022-09-16T13:27:39.486Z,99864.03
2022-09-16T13:30:09.266Z,100038.50
2022-09-16T13:32:50.019Z,99930.53
2022-09-16T13:35:20.030Z,100033.69
2022-09-16T13:37:53.629Z,100012.44
2022-09-16T13:40:30.435Z,99857.91
2022-09-16T13:43:18.609Z,99944.28
2022-09-16T13:45:50.422Z,99879.25
2022-09-16T13:48:21.572Z,99842.38
2022-09-16T13:50:53.446Z,99889.03
2022-09-16T13:53:31.894Z,100036.78
2022-09-16T13:56:23.115Z,99986.16
2022-09-16T13:59:21.754Z,100011.78
2022-09-16T14:02:23.677Z,100007.03
2022-09-16T14:05:47.207Z,100019.41
2022-09-16T14:08:39.695Z,99987.69
2022-09-16T14:11:18.322Z,99962.53
2022-09-16T14:13:48.234Z,99969.88
2022-09-16T14:16:20.553Z,99969.34
2022-09-16T14:18:56.597Z,99967.31
2022-09-16T14:21:24.544Z,99939.19
2022-09-16T14:23:51.373Z,99937.56
2022-09-16T14:26:23.272Z,99975.50
2022-09-16T14:28:50.742Z,99922.16
2022-09-16T14:31:22.704Z,99909.91
2022-09-16T14:33:57.207Z,99909.81
2022-09-16T14:36:30.023Z,99907.19
2022-09-16T14:39:09.532Z,99912.75
2022-09-16T14:41:40.485Z,99891.56
2022-09-16T14:44:22.706Z,99891.78
2022-09-16T14:47:07.379Z,99883.09
2022-09-16T14:49:39.710Z,99868.78
2022-09-16T14:52:19.643Z,99895.13
2022-09-16T14:54:46.132Z,99852.78
2022-09-16T14:57:20.667Z,99891.72
2022-09-16T14:59:47.365Z,99884.34
2022-09-16T15:02:19.563Z,99859.03
2022-09-16T15:04:53.858Z,99857.88
2022-09-16T15:07:29.644Z,99844.25
2022-09-16T15:10:09.278Z,99836.38
2022-09-16T15:12:38.785Z,99852.44
2022-09-16T15:15:15.645Z,99840.06
2022-09-16T15:17:42.120Z,99849.41
2022-09-16T15:20:25.408Z,99816.19
2022-09-16T15:22:52.807Z,99835.91
2022-09-16T15:25:29.118Z,99818.63
2022-09-16T15:28:16.176Z,99829.72
2022-09-16T15:30:55.475Z,99810.44
2022-09-16T15:33:35.950Z,99817.34
2022-09-16T15:36:04.323Z,99829.72
2022-09-16T15:38:33.482Z,99834.41
2022-09-16T15:41:20.305Z,99827.38
2022-09-16T15:43:47.073Z,99834.41
2022-09-16T15:46:18.190Z,99807.06
2022-09-16T15:49:11.466Z,99833.75
2022-09-16T15:51:49.297Z,99836.63
2022-09-16T15:54:44.721Z,99853.88
2022-09-16T15:57:31.063Z,99826.72
2022-09-16T16:00:14.902Z,99836.31
2022-09-16T16:03:01.825Z,99847.56
2022-09-16T16:05:33.177Z,99828.72
2022-09-16T16:08:06.134Z,99844.69
2022-09-16T16:10:36.353Z,99834.16
2022-09-16T16:13:06.696Z,99842.56
2022-09-16T16:15:38.815Z,99732.81
2022-09-16T16:18:10.579Z,99817.31
2022-09-16T16:20:38.187Z,99835.94
2022-09-16T16:23:04.690Z,99837.75
2022-09-16T16:25:32.086Z,99750.25
2022-09-16T16:27:58.448Z,99857.47
2022-09-16T16:30:24.823Z,99831.72
2022-09-16T16:32:51.301Z,99832.56
2022-09-16T16:35:17.821Z,99833.84
2022-09-16T16:37:47.241Z,99846.75
2022-09-16T16:40:15.208Z,99853.78
2022-09-16T16:42:43.680Z,99835.44
2022-09-16T16:45:12.851Z,99851.41
2022-09-16T16:47:40.042Z,99868.47
2022-09-16T16:50:06.842Z,99891.69
2022-09-16T16:52:33.248Z,99852.13
2022-09-16T16:55:00.635Z,99893.66
2022-09-16T16:57:27.103Z,99866.69
2022-09-16T16:59:53.457Z,99877.72
2022-09-16T17:02:20.303Z,99864.66
2022-09-16T17:04:46.733Z,99903.69
2022-09-16T17:07:28.463Z,99912.38
2022-09-16T17:09:57.250Z,99908.69
2022-09-16T17:12:23.829Z,99906.72
2022-09-16T17:14:50.495Z,99924.44
2022-09-16T17:17:18.860Z,99927.31
2022-09-16T17:19:45.287Z,99875.78
2022-09-16T17:22:12.103Z,99905.44
2022-09-16T17:24:38.590Z,99916.19
2022-09-16T17:27:05.327Z,99930.94
2022-09-16T17:29:32.067Z,99956.22
2022-09-16T17:32:00.632Z,99942.09
2022-09-16T17:34:27.093Z,99936.28
2022-09-16T17:36:54.458Z,99933.78
2022-09-16T17:39:22.619Z,99942.47
2022-09-16T17:41:50.135Z,99956.34
2022-09-16T17:44:18.107Z,99959.03
2022-09-16T17:46:45.165Z,99943.22
2022-09-16T17:49:18.147Z,99972.25
2022-09-16T17:51:44.750Z,99945.47
2022-09-16T17:54:11.677Z,99977.78
2022-09-16T17:56:38.091Z,99983.59
2022-09-16T17:59:04.652Z,99983.16
2022-09-16T18:01:31.909Z,99977.06
2022-09-16T18:03:58.460Z,99993.91
2022-09-16T18:06:28.350Z,99987.19
2022-09-16T18:08:55.381Z,99992.97
2022-09-16T18:11:22.513Z,99985.53
2022-09-16T18:13:54.311Z,100002.16
2022-09-16T18:16:21.693Z,99970.09
2022-09-16T18:18:52.057Z,99965.53
2022-09-16T18:21:19.755Z,99985.06
2022-09-16T18:23:50.515Z,100003.69
2022-09-16T18:26:18.678Z,100006.91
2022-09-16T18:29:08.515Z,99995.00
2022-09-16T18:31:34.453Z,100011.19
2022-09-16T18:34:00.863Z,100013.63
2022-09-16T18:36:29.872Z,100001.78
2022-09-16T18:38:57.626Z,100017.06
2022-09-16T18:41:30.481Z,100029.41
2022-09-16T18:44:01.969Z,100029.00
2022-09-16T18:46:30.638Z,100037.06
2022-09-16T18:48:58.273Z,100047.97
2022-09-16T18:51:27.451Z,100042.41
2022-09-16T18:53:57.699Z,100048.63
2022-09-16T18:56:25.566Z,100045.50
2022-09-16T18:59:17.229Z,100055.84
2022-09-16T19:01:40.349Z,100049.22
2022-09-16T19:04:10.139Z,100038.00
2022-09-16T19:06:39.166Z,100062.81
2022-09-16T19:09:08.143Z,100057.16
2022-09-16T19:11:36.216Z,100065.59
2022-09-16T19:14:03.469Z,100069.69
2022-09-16T19:16:32.693Z,100047.97
2022-09-16T19:19:00.811Z,100067.06
2022-09-16T19:21:28.027Z,100065.28
2022-09-16T19:24:00.104Z,100070.09
2022-09-16T19:26:31.886Z,100082.13
2022-09-16T19:29:01.670Z,100091.53
2022-09-16T19:31:29.568Z,100078.94
2022-09-16T19:33:56.280Z,100097.00
2022-09-16T19:36:25.782Z,100097.19
2022-09-16T19:38:53.429Z,100097.91
2022-09-16T19:41:23.200Z,100096.63
2022-09-16T19:43:58.198Z,100079.41
2022-09-16T19:46:25.447Z,100098.19
2022-09-16T19:48:52.240Z,100109.19
2022-09-16T19:51:22.629Z,100108.38
2022-09-16T19:53:52.895Z,100079.38
2022-09-16T19:56:23.469Z,100109.13
2022-09-16T19:58:53.852Z,100114.09
2022-09-16T20:01:24.326Z,100120.66
2022-09-16T20:03:51.999Z,100116.28
2022-09-16T20:06:20.943Z,100105.88
2022-09-16T20:08:52.496Z,100128.22
2022-09-16T20:11:20.935Z,100130.88
2022-09-16T20:13:52.924Z,100129.88
2022-09-16T20:16:20.954Z,100124.69
2022-09-16T20:18:47.670Z,100130.88
2022-09-16T20:21:17.028Z,100122.19
2022-09-16T20:23:45.202Z,100129.69
2022-09-16T20:26:14.927Z,100127.84
2022-09-16T20:28:42.899Z,100124.50
2022-09-16T20:31:13.392Z,100134.06
2022-09-16T20:33:40.998Z,100125.53
2022-09-16T20:36:10.800Z,100121.13
2022-09-16T20:38:38.756Z,100126.13
2022-09-16T20:41:07.001Z,100129.34
2022-09-16T20:43:34.703Z,100130.34
2022-09-16T20:46:11.481Z,100133.03
2022-09-16T20:48:39.160Z,100135.41
2022-09-16T20:51:11.072Z,100133.31
2022-09-16T20:53:39.226Z,100137.16
2022-09-16T20:56:08.141Z,100120.72
2022-09-16T20:58:34.849Z,100141.09
2022-09-16T21:01:24.641Z,100142.31
2022-09-16T21:03:53.236Z,100148.50
2022-09-16T21:06:19.939Z,100163.28
2022-09-16T21:08:46.710Z,100141.75
2022-09-16T21:11:15.731Z,100160.28
2022-09-16T21:13:44.362Z,100146.47
2022-09-16T21:16:12.941Z,100163.69
2022-09-16T21:18:40.183Z,100162.19
2022-09-16T21:21:11.917Z,100171.41
2022-09-16T21:23:38.554Z,100164.91
2022-09-16T21:26:12.978Z,100179.81
2022-09-16T21:28:40.032Z,100168.47
2022-09-16T21:31:12.062Z,100178.31
2022-09-16T21:33:39.580Z,100176.34
2022-09-16T21:36:09.165Z,100184.22
2022-09-16T21:38:36.069Z,100178.19
2022-09-16T21:41:05.804Z,100186.22
2022-09-16T21:43:37.927Z,100189.75
2022-09-16T21:46:04.868Z,100186.41
2022-09-16T21:48:33.367Z,100195.28
2022-09-16T21:51:05.609Z,100205.00
2022-09-16T21:53:33.373Z,100190.78
2022-09-16T21:56:05.493Z,100195.28
2022-09-16T21:58:32.529Z,100163.72
2022-09-16T22:01:06.171Z,100201.47
2022-09-16T22:03:32.604Z,100202.31
2022-09-16T22:05:59.119Z,100201.31
2022-09-16T22:08:25.580Z,100199.81
2022-09-16T22:10:52.083Z,100191.75
2022-09-16T22:13:18.706Z,100201.09
2022-09-16T22:15:51.659Z,100196.13
2022-09-16T22:18:18.155Z,100203.94
2022-09-16T22:20:44.537Z,100202.56
2022-09-16T22:23:10.954Z,100187.19
2022-09-16T22:25:37.413Z,100186.13
2022-09-16T22:28:04.490Z,100206.34
2022-09-16T22:30:33.204Z,100193.81
2022-09-16T22:33:00.648Z,100205.63
2022-09-16T22:35:27.383Z,100208.25
2022-09-16T22:37:53.835Z,100211.44
2022-09-16T22:40:20.769Z,100205.72
2022-09-16T22:42:47.474Z,100196.34
2022-09-16T22:45:13.916Z,100213.69
2022-09-16T22:47:40.342Z,100212.31
2022-09-16T22:50:07.115Z,100216.69
2022-09-16T22:52:33.507Z,100206.59
2022-09-16T22:54:59.893Z,100215.28
2022-09-16T22:57:26.445Z,100222.44
2022-09-16T22:59:52.844Z,100224.78
2022-09-16T23:02:19.394Z,100202.59
2022-09-16T23:04:45.810Z,100200.03
2022-09-16T23:07:12.404Z,100198.66
2022-09-16T23:09:38.783Z,100218.69
2022-09-16T23:12:05.462Z,100197.66
2022-09-16T23:14:31.838Z,100226.84
2022-09-16T23:16:58.680Z,100225.84
2022-09-16T23:19:25.061Z,100224.81
2022-09-16T23:21:51.517Z,100215.81
2022-09-16T23:24:20.614Z,100217.66
2022-09-16T23:26:48.062Z,100220.28
2022-09-16T23:29:15.391Z,100224.00
2022-09-16T23:31:43.567Z,100212.13
2022-09-16T23:34:13.049Z,100230.38
2022-09-16T23:36:39.630Z,100217.66
2022-09-16T23:39:07.133Z,100219.03
2022-09-16T23:41:34.945Z,100236.94
2022-09-16T23:44:01.676Z,100212.38
2022-09-16T23:46:29.272Z,100234.41
2022-09-16T23:48:55.937Z,100241.09
2022-09-16T23:51:28.037Z,100230.53
2022-09-16T23:53:56.917Z,100234.91
2022-09-16T23:56:23.581Z,100208.50
2022-09-16T23:58:51.125Z,100227.88
